Flight Track Log - Related Links

Times and Time Zones

All times are in EDT time to prevent confusion due to time zone crossing. See the AAL832 flight status page for this flight to view local times or setup timezone preferences in your user account.

Time Position Orientation Groundspeed Altitude Reporting Facility
EDT Latitude Longitude Course Direction KTS MPH feet Rate Location/Type
Fri 12:47:32 PM 33.9333 -118.4500 46° Northeast 187 215 1,500  Level Southern California TRACON
Fri 12:48:47 PM 33.9081 -118.5392 251° West 241 277 3,800 2,365 Climbing Los Angeles Center
Fri 12:49:49 PM 33.8686 -118.6147 238° Southwest 258 297 6,900 2,544 Climbing Los Angeles Center
Fri 12:50:00 PM 34.1838 -117.9659 59° Northeast  Level FlightAware Approximate
Fri 12:50:52 PM 33.8181 -118.5733 146° Southeast 275 316 9,100  Level Los Angeles Center
Fri 12:51:00 PM 34.2463 -117.8407 59° Northeast  Level FlightAware Approximate
Fri 12:51:54 PM 33.8800 -118.4811 51° Northeast 332 382 11,200  Level Los Angeles Center
Fri 12:52:00 PM 34.3235 -117.7290 46° Northeast  Level FlightAware Approximate
Fri 12:52:56 PM 33.9439 -118.4136 41° Northeast 354 407 12,700  Level Los Angeles Center
Fri 12:53:58 PM 34.0189 -118.2847 55° Northeast 388 447 15,100 2,371 Climbing Los Angeles Center
Fri 12:55:00 PM 34.0814 -118.1744 56° Northeast 396 456 17,600 2,226 Climbing Los Angeles Center
Fri 12:56:02 PM 34.1542 -118.0708 50° Northeast 404 465 19,700 1,887 Climbing Los Angeles Center
Fri 12:57:04 PM 34.2281 -117.9642 50° Northeast 412 474 21,500 1,645 Climbing Los Angeles Center
Fri 12:58:06 PM 34.3042 -117.8539 50° Northeast 424 488 23,100 1,632 Climbing Los Angeles Center
Fri 12:59:09 PM 34.3869 -117.7322 50° Northeast 435 501 24,900 1,488 Climbing Los Angeles Center
Fri 01:00:11 PM 34.4650 -117.6158 51° Northeast 443 510 26,200 1,210 Climbing Los Angeles Center
Fri 01:01:13 PM 34.5453 -117.4961 51° Northeast 456 525 27,400 1,210 Climbing Los Angeles Center
Fri 01:02:15 PM 34.6431 -117.3500 51° Northeast 466 536 28,700 1,113 Climbing Los Angeles Center
Fri 01:03:17 PM 34.7278 -117.2253 50° Northeast 479 551 29,700 1,161 Climbing Los Angeles Center
Fri 01:04:19 PM 34.8122 -117.0986 51° Northeast 485 558 31,100 1,210 Climbing Los Angeles Center
Fri 01:05:21 PM 34.8967 -116.9722 51° Northeast 483 556 32,200 1,008 Climbing Los Angeles Center
Fri 01:06:24 PM 34.9814 -116.8450 51° Northeast 486 559 33,200 1,008 Climbing Los Angeles Center
Fri 01:07:26 PM 35.0853 -116.6897 51° Northeast 494 568 34,300 1,016 Climbing Los Angeles Center
Fri 01:08:28 PM 35.1708 -116.5597 51° Northeast 494 568 35,300 919 Climbing Los Angeles Center
Fri 01:09:30 PM 35.2553 -116.4317 51° Northeast 487 560 36,200 823 Climbing Los Angeles Center
Fri 01:10:32 PM 35.3406 -116.3033 51° Northeast 487 560 37,000 387 Climbing Los Angeles Center
Fri 01:11:34 PM 35.4231 -116.1736 52° Northeast 484 557 37,000  Level Los Angeles Center
Fri 01:12:49 PM 35.5419 -115.9944 51° Northeast 484 557 37,000  Level Los Angeles Center
Fri 01:13:51 PM 35.6158 -115.8800 52° Northeast 478 550 37,000  Level Los Angeles Center
Fri 01:14:53 PM 35.7161 -115.7247 51° Northeast 483 556 37,000  Level Los Angeles Center
Fri 01:15:55 PM 35.7989 -115.5956 52° Northeast 483 556 37,000  Level Los Angeles Center
Fri 01:16:57 PM 35.8828 -115.4667 51° Northeast 486 559 37,000  Level Los Angeles Center
Fri 01:17:59 PM 35.9658 -115.3356 52° Northeast 489 563 37,000  Level Los Angeles Center
Fri 01:19:01 PM 36.0489 -115.2069 51° Northeast 485 558 37,000  Level Los Angeles Center
Fri 01:20:04 PM 36.1358 -115.0364 58° Northeast 494 568 37,000  Level Los Angeles Center
Fri 01:21:06 PM 36.2044 -114.8903 60° Northeast 495 570 37,000  Level Los Angeles Center
Fri 01:22:08 PM 36.2714 -114.7444 60° Northeast 492 566 37,000  Level Los Angeles Center
Fri 01:23:10 PM 36.3400 -114.5981 60° Northeast 492 566 37,000  Level Los Angeles Center
Fri 01:24:12 PM 36.4044 -114.4500 62° Northeast 491 565 37,000  Level Los Angeles Center
Fri 01:25:14 PM 36.4556 -114.2575 72° East 490 564 37,000  Level Los Angeles Center
Fri 01:26:17 PM 36.4994 -114.0983 71° East 488 562 37,000  Level Los Angeles Center
Fri 01:27:19 PM 36.5397 -113.9536 71° East 487 560 37,000  Level Los Angeles Center
Fri 01:28:21 PM 36.5908 -113.7631 71° East 486 559 37,000  Level Los Angeles Center
Fri 01:29:23 PM 36.6339 -113.6053 71° East 484 557 37,000  Level Los Angeles Center
Fri 01:30:25 PM 36.6761 -113.4450 72° East 487 560 37,000  Level Los Angeles Center
Fri 01:31:27 PM 36.7181 -113.2856 72° East 488 562 37,000  Level Los Angeles Center
Fri 01:32:29 PM 36.7606 -113.1267 71° East 487 560 37,000  Level Los Angeles Center
Fri 01:33:32 PM 36.8100 -112.9350 72° East 487 560 37,000  Level Los Angeles Center
Fri 01:34:34 PM 36.8528 -112.7750 71° East 490 564 37,000  Level Los Angeles Center
Fri 01:35:36 PM 36.8931 -112.6147 73° East 488 562 37,000  Level Los Angeles Center
Fri 01:36:38 PM 36.9331 -112.4567 72° East 482 555 37,000  Level Los Angeles Center
Fri 01:37:40 PM 36.9747 -112.2992 72° East 481 554 37,000  Level Los Angeles Center
Fri 01:38:42 PM 37.0225 -112.1086 73° East 481 554 37,000  Level Los Angeles Center
Fri 01:39:44 PM 37.0628 -111.9503 72° East 480 552 37,000  Level Los Angeles Center
Fri 01:40:46 PM 37.1017 -111.7919 73° East 479 551 37,000  Level Los Angeles Center
Fri 01:41:49 PM 37.1417 -111.6339 72° East 478 550 37,000  Level Los Angeles Center
Fri 01:42:51 PM 37.1819 -111.4731 73° East 483 556 37,000  Level Los Angeles Center
Fri 01:43:53 PM 37.2214 -111.3133 73° East 482 555 37,000  Level Los Angeles Center
Fri 01:45:14 PM 37.2747 -111.0878 73° East 485 558 37,000  Level Denver Center
Fri 01:46:16 PM 37.3147 -110.9250 73° East 488 562 37,000  Level Denver Center
Fri 01:47:18 PM 37.3619 -110.7292 73° East 490 564 37,000  Level Denver Center
Fri 01:48:20 PM 37.3994 -110.5672 74° East 486 559 37,000  Level Denver Center
Fri 01:49:22 PM 37.4375 -110.4067 73° East 482 555 37,000  Level Denver Center
Fri 01:50:24 PM 37.4756 -110.2450 73° East 484 557 37,000  Level Denver Center
Fri 01:51:27 PM 37.5178 -110.0636 74° East 482 555 37,000  Level Denver Center
Fri 01:52:29 PM 37.5544 -109.9078 73° East 483 556 37,000  Level Denver Center
Fri 01:53:31 PM 37.5953 -109.7294 74° East 476 548 37,000  Level Denver Center
Fri 01:54:33 PM 37.6297 -109.5769 74° East 472 543 37,000  Level Denver Center
Fri 01:55:35 PM 37.6714 -109.3983 74° East 474 545 37,000  Level Denver Center
Fri 01:56:49 PM 37.7122 -109.2181 74° East 476 548 37,000  Level Denver Center
Fri 01:57:52 PM 37.7517 -109.0375 75° East 477 549 37,000  Level Denver Center
Fri 01:58:54 PM 37.7853 -108.8817 75° East 478 550 37,000  Level Denver Center
Fri 01:59:56 PM 37.8247 -108.7028 74° East 474 545 37,000  Level Denver Center
Fri 02:00:58 PM 37.8589 -108.5467 74° East 477 549 37,000  Level Denver Center
Fri 02:02:00 PM 37.8975 -108.3678 75° East 475 547 37,000  Level Denver Center
Fri 02:03:02 PM 37.9306 -108.2114 75° East 478 550 37,000  Level Denver Center
Fri 02:04:04 PM 37.9692 -108.0294 75° East 478 550 37,000  Level Denver Center
Fri 02:05:06 PM 38.0025 -107.8761 75° East 474 545 37,000  Level Denver Center
Fri 02:06:08 PM 38.0406 -107.6928 75° East 478 550 37,000  Level Denver Center
Fri 02:07:10 PM 38.0719 -107.5367 76° East 478 550 37,000  Level Denver Center
Fri 02:08:12 PM 38.1058 -107.3764 75° East 479 551 37,000  Level Denver Center
Fri 02:09:15 PM 38.1428 -107.1947 75° East 478 550 37,000  Level Denver Center
Fri 02:10:17 PM 38.1728 -107.0481 75° East 476 548 37,000  Level Denver Center
Fri 02:11:19 PM 38.2053 -106.8858 76° East 477 549 37,000  Level Denver Center
Fri 02:12:21 PM 38.2425 -106.7036 75° East 476 548 37,000  Level Denver Center
Fri 02:13:23 PM 38.2783 -106.5208 76° East 478 550 37,000  Level Denver Center
Fri 02:14:25 PM 38.3092 -106.3653 76° East 478 550 37,000  Level Denver Center
Fri 02:15:27 PM 38.3408 -106.1997 76° East 482 555 37,000  Level Denver Center
Fri 02:16:29 PM 38.3750 -106.0256 76° East 480 552 37,000  Level Denver Center
Fri 02:17:31 PM 38.4117 -105.8394 76° East 484 557 37,000  Level Denver Center
Fri 02:18:33 PM 38.4411 -105.6767 77° East 477 549 37,000  Level Denver Center
Fri 02:19:35 PM 38.4725 -105.5122 76° East 478 550 37,000  Level Denver Center
Fri 02:20:37 PM 38.5031 -105.3500 76° East 473 544 37,000  Level Denver Center
Fri 02:21:39 PM 38.5342 -105.1872 76° East 474 545 37,000  Level Denver Center
Fri 02:22:42 PM 38.5692 -104.9928 77° East 468 539 37,000  Level Denver Center
Fri 02:23:44 PM 38.5981 -104.8322 77° East 468 539 37,000  Level Denver Center
Fri 02:24:46 PM 38.6275 -104.6714 77° East 467 537 37,000  Level Denver Center
Fri 02:25:48 PM 38.6567 -104.5081 77° East 469 540 37,000  Level Denver Center
Fri 02:26:50 PM 38.6850 -104.3483 77° East 465 535 37,000  Level Denver Center
Fri 02:27:52 PM 38.7200 -104.1556 77° East 466 536 37,000  Level Denver Center
Fri 02:28:54 PM 38.7469 -103.9958 78° East 454 522 37,000  Level Denver Center
Fri 02:29:56 PM 38.7750 -103.8408 77° East 462 532 37,000  Level Denver Center
Fri 02:30:58 PM 38.8044 -103.6631 78° East 457 526 37,000  Level Denver Center
Fri 02:32:00 PM 38.8303 -103.5097 78° East 458 527 37,000  Level Denver Center
Fri 02:33:02 PM 38.8608 -103.3328 77° East 455 524 37,000  Level Denver Center
Fri 02:34:04 PM 38.8869 -103.1744 78° East 456 525 37,000  Level Denver Center
Fri 02:35:06 PM 38.9122 -103.0172 78° East 453 521 37,000  Level Denver Center
Fri 02:36:09 PM 38.9383 -102.8597 78° East 453 521 37,000  Level Denver Center
Fri 02:37:11 PM 38.9672 -102.6817 78° East 451 519 37,000  Level Denver Center
Fri 02:38:13 PM 38.9928 -102.5292 78° East 454 522 37,000  Level Denver Center
Fri 02:39:15 PM 39.0203 -102.3508 79° East 456 525 37,000  Level Denver Center
Fri 02:40:17 PM 39.0450 -102.1978 78° East 456 525 37,000  Level Denver Center
Fri 02:41:19 PM 39.0683 -102.0447 79° East 455 524 37,000  Level Denver Center
Fri 02:42:21 PM 39.0967 -101.8675 78° East 452 520 37,000  Level Denver Center
Fri 02:43:23 PM 39.1194 -101.7147 79° East 453 521 37,000  Level Denver Center
Fri 02:44:26 PM 39.1450 -101.5372 79° East 453 521 37,000  Level Denver Center
Fri 02:45:27 PM 39.1681 -101.3856 79° East 452 520 37,000  Level Denver Center
Fri 02:46:29 PM 39.1944 -101.2097 79° East 451 519 37,000  Level Denver Center
Fri 02:47:31 PM 39.2175 -101.0581 79° East 451 519 37,000  Level Denver Center
Fri 02:48:34 PM 39.2428 -100.8833 79° East 446 513 37,000  Level Denver Center
Fri 02:49:36 PM 39.2644 -100.7325 79° East 448 516 37,000  Level Denver Center
Fri 02:50:38 PM 39.2889 -100.5578 80° East 444 511 37,000  Level Denver Center
Fri 02:51:40 PM 39.3103 -100.4089 79° East 443 510 37,000  Level Denver Center
Fri 02:52:42 PM 39.3347 -100.2344 80° East 443 510 37,000  Level Denver Center
Fri 02:53:44 PM 39.3550 -100.0847 80° East 442 509 37,000  Level Denver Center
Fri 02:54:46 PM 39.3797 -99.9114 79° East 440 506 37,000  Level Denver Center
Fri 02:55:48 PM 39.3992 -99.7631 80° East 440 506 37,000  Level Denver Center
Fri 02:56:50 PM 39.4219 -99.5919 80° East 436 502 37,000  Level Denver Center
Fri 02:57:52 PM 39.4414 -99.4439 80° East 436 502 37,000  Level Denver Center
Fri 02:58:54 PM 39.4622 -99.2889 80° East 433 498 37,000  Level Denver Center
Fri 03:00:09 PM 39.4861 -99.1028 80° East 437 503 37,000  Level Denver Center
Fri 03:01:11 PM 39.5092 -98.9181 81° East 435 501 37,000  Level Denver Center
Fri 03:02:13 PM 39.5294 -98.7611 80° East 440 506 37,000  Level Denver Center
Fri 03:03:15 PM 39.5492 -98.6061 81° East 439 505 37,000  Level Denver Center
Fri 03:04:17 PM 39.5678 -98.4492 81° East 440 506 37,000  Level Denver Center
Fri 03:05:55 PM 39.5989 -98.1989 81° East 443 510 37,000 40 Level Minneapolis Center
Fri 03:06:47 PM 39.6178 -98.0428 81° East 440 506 37,100  Climbing Kansas City Center
Fri 03:07:51 PM 39.6378 -97.8775 81° East 443 510 37,000 -48 Descending Kansas City Center
Fri 03:08:53 PM 39.6553 -97.7264 81° East 436 502 37,000  Level Kansas City Center
Fri 03:09:54 PM 39.6722 -97.5681 82° East 442 509 37,000  Level Kansas City Center
Fri 03:10:56 PM 39.6911 -97.4103 81° East 443 510 37,000  Level Kansas City Center
Fri 03:11:59 PM 39.7097 -97.2514 81° East 445 512 37,000  Level Kansas City Center
Fri 03:12:59 PM 39.7278 -97.0958 81° East 443 510 37,000  Level Kansas City Center
Fri 03:14:03 PM 39.7489 -96.9067 82° East 440 506 37,000  Level Kansas City Center
Fri 03:15:04 PM 39.7647 -96.7431 83° East 444 511 37,000  Level Kansas City Center
Fri 03:16:07 PM 39.7811 -96.5939 82° East 437 503 37,000  Level Kansas City Center
Fri 03:17:09 PM 39.7986 -96.4342 82° East 438 504 37,000  Level Kansas City Center
Fri 03:18:09 PM 39.8142 -96.2781 83° East 437 503 37,000  Level Kansas City Center
Fri 03:19:13 PM 39.8331 -96.0950 82° East 435 501 37,000  Level Kansas City Center
Fri 03:20:13 PM 39.8486 -95.9425 82° East 440 506 37,000  Level Kansas City Center
Fri 03:21:17 PM 39.8642 -95.7911 82° East 440 506 37,000  Level Kansas City Center
Fri 03:22:18 PM 39.8817 -95.6108 83° East 446 513 37,000  Level Kansas City Center
Fri 03:23:22 PM 39.8967 -95.4564 83° East 447 514 37,000  Level Kansas City Center
Fri 03:24:23 PM 39.9142 -95.2753 83° East 449 517 37,000  Level Kansas City Center
Fri 03:25:23 PM 39.9286 -95.1192 83° East 451 519 37,000  Level Kansas City Center
Fri 03:26:25 PM 39.9453 -94.9356 83° East 454 522 37,000  Level Kansas City Center
Fri 03:27:29 PM 39.9592 -94.7786 83° East 454 522 37,000  Level Kansas City Center
Fri 03:28:29 PM 39.9764 -94.5953 83° East 455 524 37,000  Level Kansas City Center
Fri 03:29:33 PM 39.9894 -94.4383 84° East 455 524 37,000  Level Kansas City Center
Fri 03:30:34 PM 40.0031 -94.2814 83° East 454 522 37,000  Level Kansas City Center
Fri 03:31:38 PM 40.0189 -94.0981 84° East 456 525 37,000  Level Kansas City Center
Fri 03:32:38 PM 40.0292 -93.9475 85° East 458 527 37,000  Level Kansas City Center
Fri 03:33:40 PM 40.0461 -93.7525 83° East 456 525 37,000  Level Kansas City Center
Fri 03:34:41 PM 40.0583 -93.5900 84° East 455 524 37,000  Level Kansas City Center
Fri 03:35:45 PM 40.0717 -93.4256 84° East 458 527 37,000  Level Kansas City Center
Fri 03:36:45 PM 40.0847 -93.2617 84° East 458 527 37,000  Level Kansas City Center
Fri 03:37:48 PM 40.0981 -93.0964 84° East 461 531 37,000  Level Kansas City Center
Fri 03:38:50 PM 40.1197 -92.9103 81° East 459 528 37,000  Level Kansas City Center
Fri 03:39:51 PM 40.1661 -92.7608 68° East 461 531 37,000 -341 Level Kansas City Center
Fri 03:40:53 PM 40.2164 -92.5853 69° East 461 531 36,300 -768 Descending Kansas City Center
Fri 03:41:56 PM 40.2633 -92.4331 68° East 465 535 35,400 -960 Descending Kansas City Center
Fri 03:42:58 PM 40.3142 -92.2508 70° East 475 547 34,300 -960 Descending Kansas City Center
Fri 03:44:01 PM 40.3600 -92.0900 69° East 478 550 33,400 -629 Descending Kansas City Center
Fri 03:45:02 PM 40.4053 -91.9300 70° East 475 547 33,000 -194 Descending Kansas City Center
Fri 03:46:05 PM 40.4508 -91.7703 69° East 473 544 33,000  Level Kansas City Center
Fri 03:47:06 PM 40.5036 -91.5775 70° East 472 543 33,000  Level Kansas City Center
Fri 03:48:10 PM 40.5492 -91.4175 69° East 472 543 33,000  Level Kansas City Center
Fri 03:49:11 PM 40.6044 -91.2503 66° East 473 544 33,000  Level Kansas City Center
Fri 03:50:11 PM 40.6603 -91.0911 65° Northeast 475 547 33,000  Level Kansas City Center
Fri 03:51:15 PM 40.7150 -90.9308 66° East 479 551 33,000  Level Kansas City Center
Fri 03:52:15 PM 40.7703 -90.7708 65° Northeast 479 551 33,000  Level Kansas City Center
Fri 03:53:19 PM 40.8247 -90.6097 66° East 479 551 33,000 -192 Level Kansas City Center
Fri 03:54:20 PM 40.8789 -90.4489 66° East 478 550 32,600 -795 Descending Kansas City Center
Fri 03:55:50 PM 40.9700 -90.1722 66° East 480 552 31,000 -1,382 Descending Chicago Center
Fri 03:56:52 PM 41.0183 -90.0269 66° East 475 547 29,100 -2,081 Descending Chicago Center
Fri 03:57:54 PM 41.0692 -89.8708 67° East 459 528 26,700 -2,256 Descending Chicago Center
Fri 03:58:57 PM 41.1181 -89.7206 67° East 443 510 24,400 -2,016 Descending Chicago Center
Fri 03:59:59 PM 41.1639 -89.5778 67° East 424 488 22,500 -1,452 Descending Chicago Center
Fri 04:01:01 PM 41.2239 -89.4311 61° Northeast 379 436 21,400 -1,258 Descending Chicago Center
Fri 04:02:03 PM 41.2700 -89.3178 62° Northeast 357 411 19,900 -1,694 Descending Chicago Center
Fri 04:03:05 PM 41.3136 -89.2089 62° Northeast 342 394 17,900 -1,839 Descending Chicago Center
Fri 04:04:07 PM 41.3542 -89.1036 63° Northeast 323 372 16,100 -1,887 Descending Chicago Center
Fri 04:05:09 PM 41.3964 -89.0008 61° Northeast 318 366 14,000 -1,887 Descending Chicago Center
Fri 04:06:11 PM 41.4358 -88.9008 62° Northeast 311 358 12,200 -1,452 Descending Chicago Center
Fri 04:07:13 PM 41.4811 -88.7875 62° Northeast 295 339 11,000 -581 Descending Chicago Center
Fri 04:08:15 PM 41.5172 -88.6936 63° Northeast 288 331 11,000  Level Chicago Center
Fri 04:09:17 PM 41.5544 -88.6000 62° Northeast 288 331 11,000 -336 Level Chicago Center
Fri 04:10:20 PM 41.5886 -88.5042 64° Northeast 287 330 10,300 -1,008 Descending Chicago Center
Fri 04:11:22 PM 41.6175 -88.4094 68° East 278 320 8,900 -1,113 Descending Chicago Center
Fri 04:12:24 PM 41.6469 -88.3156 67° East 273 314 8,000 -435 Descending Chicago Center
Fri 04:13:26 PM 41.6881 -88.2097 62° Northeast 270 311 8,000 -677 Level Chicago Center
Fri 04:14:28 PM 41.7456 -88.1433 41° Northeast 273 314 6,600 -1,016 Descending Chicago Center
Fri 04:15:30 PM 41.7997 -88.0808 41° Northeast 263 303 5,900 -871 Descending Chicago Center
Fri 04:16:32 PM 41.8461 -88.0278 40° Northeast 231 266 4,800 -1,649 Descending Chicago Center
Fri 04:17:41 PM 41.9000 -87.9667 40° Northeast 178 205 2,300 -1,610 Descending Chicago TRACON
Fri 04:18:35 PM 41.9167 -87.9333 56° Northeast 154 177 1,500 -889 Descending Chicago TRACON

Login

Don't have an account? Register now (free) for customized features, flight alerts, and more!